»·PEaware :: DAL2034 KSAN-KLAX

DAL2034 :: KSAN-KLAX

FLIGHT INFORMATION

Flight Status: Arrived
Operator:
Delta Air Lines
More flights by this operator :: More flights under this callsign
Pilot: Seung K. (26649)
Aircraft: BOEING 737-700
(B737)
More flights by this aircraft type
Origin: KSAN San Diego Intl-Lindbergh
United States
Destination: KLAX Los Angeles Intl
United States
More flights between these airports :: More routes between these airports
Route: PEBLE6 SLI
File this flight plan on PilotEdge
Remarks:
Altitude:
(Current/Filed)
10,000ft
Speed:
(Current/Filed)
320kts
Departed: 08-Jan-20 06:26 PM
Arrived: 08-Jan-20 06:53 PM
Distance/Time
Traveled:
95nm/0:27
Distance/Time
To Go:
Arrived

Flight Plot

Page will automatically refresh every two minutes.


Map Options




Map Legend


Flown Route
Filed Route
Departure Airport
Arrival Airport
Navaid (VOR, NDB)
Fix

Horizontal Profiles

Position Reports

Time Latitude Longitude Heading Altitude Ground
Speed
08-Jan-20 17:55 32.732827 -117.201847 100 23ft 0kts
08-Jan-20 17:56 32.732827 -117.201847 100 23ft 0kts
08-Jan-20 17:57 32.732827 -117.201847 100 23ft 0kts
08-Jan-20 17:58 32.732827 -117.201847 100 23ft 0kts
08-Jan-20 17:59 32.732827 -117.201847 100 23ft 0kts
08-Jan-20 18:00 32.732827 -117.201847 100 23ft 0kts
08-Jan-20 18:01 32.732827 -117.201847 100 23ft 0kts
08-Jan-20 18:02 32.732827 -117.201847 100 23ft 0kts
08-Jan-20 18:03 32.732827 -117.201847 100 23ft 0kts
08-Jan-20 18:04 32.732827 -117.201847 100 23ft 0kts
08-Jan-20 18:05 32.732827 -117.201847 100 23ft 0kts
08-Jan-20 18:06 32.732827 -117.201847 100 23ft 0kts
08-Jan-20 18:07 32.732827 -117.201847 100 23ft 0kts
08-Jan-20 18:08 32.732827 -117.201847 100 23ft 0kts
08-Jan-20 18:09 32.732827 -117.201847 100 23ft 0kts
08-Jan-20 18:10 32.732827 -117.201847 100 23ft 0kts
08-Jan-20 18:11 32.732827 -117.201847 100 23ft 0kts
08-Jan-20 18:12 32.732827 -117.201847 100 23ft 0kts
08-Jan-20 18:14 32.732827 -117.201847 100 23ft 0kts
08-Jan-20 18:15 32.732827 -117.201847 100 23ft 0kts
08-Jan-20 18:16 32.732827 -117.201847 100 23ft 0kts
08-Jan-20 18:17 32.732895 -117.202302 100 23ft 3kts
08-Jan-20 18:18 32.732974 -117.202819 96 23ft 7kts
08-Jan-20 18:19 32.735054 -117.201180 97 23ft 8kts
08-Jan-20 18:20 32.733220 -117.192257 105 23ft 20kts
08-Jan-20 18:21 32.731723 -117.185871 104 23ft 35kts
08-Jan-20 18:22 32.730753 -117.181835 106 23ft 4kts
08-Jan-20 18:23 32.729973 -117.178531 105 23ft 10kts
08-Jan-20 18:24 32.729640 -117.176526 72 23ft 0kts
08-Jan-20 18:25 32.730350 -117.176398 283 23ft 2kts
08-Jan-20 18:26 32.740600 -117.216018 289 1328ft 205kts
08-Jan-20 18:27 32.769754 -117.279058 302 5985ft 206kts
08-Jan-20 18:28 32.800982 -117.332699 302 9775ft 191kts
08-Jan-20 18:29 32.834968 -117.389325 302 10115ft 217kts
08-Jan-20 18:30 32.878229 -117.448199 323 10075ft 305kts
08-Jan-20 18:31 32.961064 -117.505746 326 10015ft 357kts
08-Jan-20 18:32 33.027762 -117.590327 303 10003ft 350kts
08-Jan-20 18:33 33.084302 -117.685273 303 10002ft 350kts
08-Jan-20 18:33 33.133474 -117.762037 306 10002ft 351kts
08-Jan-20 18:35 33.220453 -117.847200 336 10004ft 360kts
08-Jan-20 18:36 33.315938 -117.884052 339 10002ft 361kts
08-Jan-20 18:36 33.391957 -117.911994 339 9992ft 311kts
08-Jan-20 18:38 33.480895 -117.944419 339 9482ft 280kts
08-Jan-20 18:38 33.540534 -117.966028 338 8642ft 257kts
08-Jan-20 18:39 33.608130 -117.990521 338 7640ft 247kts
08-Jan-20 18:41 33.680297 -118.017011 338 6917ft 215kts
08-Jan-20 18:41 33.727451 -118.034283 338 6934ft 214kts
08-Jan-20 18:42 33.785284 -118.052881 347 6786ft 222kts
08-Jan-20 18:43 33.850711 -118.063142 350 4818ft 248kts
08-Jan-20 18:44 33.921469 -118.074149 352 2820ft 263kts
08-Jan-20 18:45 33.980276 -118.100768 297 2526ft 208kts
08-Jan-20 18:46 33.992829 -118.153027 246 2262ft 148kts
08-Jan-20 18:47 33.974677 -118.187508 256 2521ft 146kts
08-Jan-20 18:48 33.969548 -118.232049 263 2634ft 145kts
08-Jan-20 18:49 33.964826 -118.278284 262 2132ft 143kts
08-Jan-20 18:50 33.959865 -118.326118 262 1317ft 147kts
08-Jan-20 18:51 33.954983 -118.374047 263 606ft 144kts
08-Jan-20 18:52 33.950964 -118.413263 262 134ft 2kts
08-Jan-20 18:53 33.949692 -118.418859 232 134ft 9kts
08-Jan-20 18:54 33.949418 -118.419272 231 134ft 0kts
08-Jan-20 18:55 33.946934 -118.422190 113 134ft 5kts
08-Jan-20 18:56 33.947736 -118.413946 81 134ft 40kts
08-Jan-20 18:57 33.947638 -118.405923 183 134ft 16kts
08-Jan-20 18:58 33.945843 -118.404656 77 134ft 0kts
08-Jan-20 18:59 33.945843 -118.404654 77 134ft 0kts
08-Jan-20 19:00 33.945843 -118.404654 77 134ft 0kts
08-Jan-20 19:01 33.945843 -118.404654 77 134ft 0kts

Navigation Log

Ident Type
Flight plan parsing failed, navigation log unavailable